createdAt,value
2019-03-20T00:00:28.545Z,0.00
2019-03-20T00:01:28.494Z,0.00
2019-03-20T00:02:28.571Z,0.00
2019-03-20T00:03:28.504Z,0.00
2019-03-20T00:04:29.049Z,0.00
2019-03-20T00:05:28.480Z,0.00
2019-03-20T00:06:28.440Z,0.00
2019-03-20T00:07:28.426Z,0.00
2019-03-20T00:08:29.116Z,0.00
2019-03-20T00:09:28.404Z,0.00
2019-03-20T00:10:28.412Z,0.00
2019-03-20T00:11:28.419Z,0.00
2019-03-20T00:12:28.457Z,0.00
2019-03-20T00:13:28.367Z,0.00
2019-03-20T00:14:29.095Z,0.00
2019-03-20T00:15:28.374Z,0.00
2019-03-20T00:16:28.324Z,0.00
2019-03-20T00:17:28.376Z,0.00
2019-03-20T00:18:28.331Z,0.00
2019-03-20T00:19:28.363Z,0.00
2019-03-20T00:20:28.286Z,0.00
2019-03-20T00:21:28.369Z,0.00
2019-03-20T00:22:28.257Z,0.00
2019-03-20T00:23:28.243Z,0.00
2019-03-20T00:24:28.267Z,0.00
2019-03-20T00:25:28.228Z,0.00
2019-03-20T00:26:28.261Z,0.00
2019-03-20T00:27:28.214Z,0.00
2019-03-20T00:28:29.029Z,0.00
2019-03-20T00:29:28.229Z,0.00
2019-03-20T00:30:28.180Z,0.00
2019-03-20T00:31:28.156Z,0.00
2019-03-20T00:32:28.250Z,0.00
2019-03-20T00:33:28.145Z,0.00
2019-03-20T00:34:28.178Z,0.00
2019-03-20T00:35:28.188Z,0.00
2019-03-20T00:36:28.177Z,0.00
2019-03-20T00:37:28.252Z,0.00
2019-03-20T00:38:28.157Z,0.00
2019-03-20T00:39:28.145Z,0.00
2019-03-20T00:40:28.070Z,0.00
2019-03-20T00:41:28.155Z,0.00
2019-03-20T00:42:29.026Z,0.00
2019-03-20T00:43:28.124Z,0.00
2019-03-20T00:44:28.057Z,0.00
2019-03-20T00:45:28.010Z,0.00
2019-03-20T00:46:28.007Z,0.00
2019-03-20T00:47:28.024Z,0.00
2019-03-20T00:48:28.025Z,0.00
2019-03-20T00:49:28.519Z,0.00
2019-03-20T00:50:27.991Z,0.00
2019-03-20T00:51:28.514Z,0.00
2019-03-20T00:52:27.989Z,0.00
2019-03-20T00:53:27.960Z,0.00
2019-03-20T00:54:27.939Z,0.00
2019-03-20T00:55:27.903Z,0.00
2019-03-20T00:56:27.898Z,0.00
2019-03-20T00:57:27.932Z,0.00
2019-03-20T00:58:27.872Z,0.00
2019-03-20T00:59:28.513Z,0.00
2019-03-20T01:00:28.549Z,0.00
2019-03-20T01:01:27.877Z,0.00
2019-03-20T01:02:27.860Z,0.00
2019-03-20T01:03:27.874Z,0.00
2019-03-20T01:04:27.845Z,0.00
2019-03-20T01:05:27.865Z,0.00
2019-03-20T01:06:27.819Z,0.00
2019-03-20T01:07:27.776Z,0.00
2019-03-20T01:08:27.760Z,0.00
2019-03-20T01:09:27.777Z,0.00
2019-03-20T01:10:27.800Z,0.00
2019-03-20T01:11:27.802Z,0.00
2019-03-20T01:12:27.727Z,0.00
2019-03-20T01:13:28.502Z,0.00
2019-03-20T01:14:27.731Z,0.00
2019-03-20T01:15:27.704Z,0.00
2019-03-20T01:16:27.670Z,0.00
2019-03-20T01:17:27.756Z,0.00
2019-03-20T01:18:27.681Z,0.00
2019-03-20T01:19:27.639Z,0.00
2019-03-20T01:20:27.715Z,0.00
2019-03-20T01:21:28.526Z,0.00
2019-03-20T01:22:27.634Z,0.00
2019-03-20T01:23:27.649Z,0.00
2019-03-20T01:24:27.586Z,0.00
2019-03-20T01:25:27.573Z,0.00
2019-03-20T01:26:27.563Z,0.00
2019-03-20T01:27:27.663Z,0.00
2019-03-20T01:28:27.572Z,0.00
2019-03-20T01:29:28.495Z,0.00
2019-03-20T01:30:27.512Z,0.00
2019-03-20T01:31:28.527Z,0.00
2019-03-20T01:32:28.498Z,0.00
2019-03-20T01:33:27.483Z,0.00
2019-03-20T01:34:27.506Z,0.00
2019-03-20T01:35:27.459Z,0.00
2019-03-20T01:36:27.466Z,0.00
2019-03-20T01:37:31.755Z,0.00
2019-03-20T01:38:27.451Z,0.00
2019-03-20T01:39:27.438Z,0.00
2019-03-20T01:40:27.412Z,0.00
2019-03-20T01:41:37.408Z,0.00
2019-03-20T01:42:28.982Z,0.00
2019-03-20T01:43:27.986Z,0.00
2019-03-20T01:44:27.446Z,0.00
2019-03-20T01:45:27.381Z,0.00
2019-03-20T01:46:27.983Z,0.00
2019-03-20T01:47:27.392Z,0.00
2019-03-20T01:48:27.393Z,0.00
2019-03-20T01:49:27.337Z,0.00
2019-03-20T01:50:27.313Z,0.00
2019-03-20T01:51:28.019Z,0.00
2019-03-20T01:52:27.336Z,0.00
2019-03-20T01:53:27.268Z,0.00
2019-03-20T01:54:27.279Z,0.00
2019-03-20T01:55:27.979Z,0.00
2019-03-20T01:56:27.983Z,0.00
2019-03-20T01:57:27.241Z,0.00
2019-03-20T01:58:27.216Z,0.00
2019-03-20T01:59:27.197Z,0.00
2019-03-20T02:00:27.217Z,0.00
2019-03-20T02:01:27.238Z,0.00
2019-03-20T02:02:27.198Z,0.00
2019-03-20T02:03:27.972Z,0.00
2019-03-20T02:04:27.165Z,0.00
2019-03-20T02:05:35.721Z,0.00
2019-03-20T02:06:28.242Z,0.00
2019-03-20T02:07:27.115Z,0.00
2019-03-20T02:08:27.153Z,0.00
2019-03-20T02:09:27.096Z,0.00
2019-03-20T02:10:27.133Z,0.00
2019-03-20T02:11:27.068Z,0.00
2019-03-20T02:12:27.087Z,0.00
2019-03-20T02:13:27.106Z,0.00
2019-03-20T02:14:27.058Z,0.00
2019-03-20T02:15:37.696Z,0.00
2019-03-20T02:16:28.119Z,0.00
2019-03-20T02:17:26.997Z,0.00
2019-03-20T02:18:27.135Z,0.00
2019-03-20T02:19:27.006Z,0.00
2019-03-20T02:20:26.989Z,0.00
2019-03-20T02:21:26.986Z,0.00
2019-03-20T02:22:27.464Z,0.00
2019-03-20T02:23:30.284Z,0.00
2019-03-20T02:24:26.958Z,0.00
2019-03-20T02:25:27.009Z,0.00
2019-03-20T02:26:26.908Z,0.00
2019-03-20T02:27:26.901Z,0.00
2019-03-20T02:28:26.914Z,0.00
2019-03-20T02:29:27.498Z,0.00
2019-03-20T02:30:27.458Z,0.00
2019-03-20T02:31:26.892Z,0.00
2019-03-20T02:32:27.955Z,0.00
2019-03-20T02:33:27.462Z,0.00
2019-03-20T02:34:27.459Z,0.00
2019-03-20T02:35:26.840Z,0.00
2019-03-20T02:36:26.806Z,0.00
2019-03-20T02:37:26.815Z,0.00
2019-03-20T02:38:26.813Z,0.00
2019-03-20T02:39:27.459Z,0.00
2019-03-20T02:40:26.817Z,0.00
2019-03-20T02:41:26.751Z,0.00
2019-03-20T02:42:26.757Z,0.00
2019-03-20T02:43:26.781Z,0.00
2019-03-20T02:44:26.749Z,0.00
2019-03-20T02:45:26.719Z,0.00
2019-03-20T02:46:26.719Z,0.00
2019-03-20T02:47:26.676Z,0.00
2019-03-20T02:48:27.445Z,0.00
2019-03-20T02:49:26.698Z,0.00
2019-03-20T02:50:27.447Z,0.00
2019-03-20T02:51:26.666Z,0.00
2019-03-20T02:52:26.698Z,0.00
2019-03-20T02:53:26.613Z,0.00
2019-03-20T02:54:26.653Z,0.00
2019-03-20T02:55:26.703Z,0.00
2019-03-20T02:56:26.631Z,0.00
2019-03-20T02:57:26.610Z,0.00
2019-03-20T02:58:27.443Z,0.00
2019-03-20T02:59:26.585Z,0.00
2019-03-20T03:00:26.550Z,0.00
2019-03-20T03:01:26.610Z,0.00
2019-03-20T03:02:26.515Z,0.00
2019-03-20T03:03:26.507Z,0.00
2019-03-20T03:04:27.437Z,0.00
2019-03-20T03:05:26.488Z,0.00
2019-03-20T03:06:27.438Z,0.00
2019-03-20T03:07:26.465Z,0.00
2019-03-20T03:08:26.487Z,0.00
2019-03-20T03:09:26.471Z,0.00
2019-03-20T03:10:26.936Z,0.00
2019-03-20T03:11:26.461Z,0.00
2019-03-20T03:12:26.507Z,0.00
2019-03-20T03:13:26.469Z,0.00
2019-03-20T03:14:26.504Z,0.00
2019-03-20T03:15:26.417Z,0.00
2019-03-20T03:16:26.936Z,0.00
2019-03-20T03:17:26.397Z,0.00
2019-03-20T03:18:26.381Z,0.00
2019-03-20T03:19:26.338Z,0.00
2019-03-20T03:20:26.353Z,0.00
2019-03-20T03:21:26.314Z,0.00
2019-03-20T03:22:26.302Z,0.00
2019-03-20T03:23:26.928Z,0.00
2019-03-20T03:24:26.283Z,0.00
2019-03-20T03:25:26.305Z,0.00
2019-03-20T03:26:26.301Z,0.00
2019-03-20T03:27:26.323Z,0.00
2019-03-20T03:28:26.312Z,0.00
2019-03-20T03:29:26.234Z,0.00
2019-03-20T03:30:26.243Z,0.00
2019-03-20T03:31:26.924Z,0.00
2019-03-20T03:32:26.235Z,0.00
2019-03-20T03:33:26.221Z,0.00
2019-03-20T03:34:26.230Z,0.00
2019-03-20T03:35:26.181Z,0.00
2019-03-20T03:36:26.184Z,0.00
2019-03-20T03:37:26.219Z,0.00
2019-03-20T03:38:26.136Z,0.00
2019-03-20T03:39:26.167Z,0.00
2019-03-20T03:40:26.188Z,0.00
2019-03-20T03:41:26.920Z,0.00
2019-03-20T03:42:26.091Z,0.00
2019-03-20T03:43:26.129Z,0.00
2019-03-20T03:44:26.103Z,0.00
2019-03-20T03:45:26.093Z,0.00
2019-03-20T03:46:26.097Z,0.00
2019-03-20T03:47:26.915Z,0.00
2019-03-20T03:48:26.065Z,0.00
2019-03-20T03:49:26.070Z,0.00
2019-03-20T03:50:26.039Z,0.00
2019-03-20T03:51:26.924Z,0.00
2019-03-20T03:52:25.991Z,0.00
2019-03-20T03:53:26.911Z,0.00
2019-03-20T03:54:25.961Z,0.00
2019-03-20T03:55:25.993Z,0.00
2019-03-20T03:56:25.983Z,0.00
2019-03-20T03:57:25.942Z,0.00
2019-03-20T03:58:25.948Z,0.00
2019-03-20T03:59:25.910Z,0.00
2019-03-20T04:00:25.940Z,0.00
2019-03-20T04:01:25.904Z,0.00
2019-03-20T04:02:25.984Z,0.00
2019-03-20T04:03:25.868Z,0.00
2019-03-20T04:04:25.925Z,0.00
2019-03-20T04:05:25.857Z,0.00
2019-03-20T04:06:35.634Z,0.00
2019-03-20T04:07:26.864Z,0.00
2019-03-20T04:08:25.887Z,0.00
2019-03-20T04:09:25.836Z,0.00
2019-03-20T04:10:26.899Z,0.00
2019-03-20T04:11:25.814Z,0.00
2019-03-20T04:12:25.774Z,0.00
2019-03-20T04:13:25.764Z,0.00
2019-03-20T04:14:25.821Z,0.00
2019-03-20T04:15:25.785Z,0.00
2019-03-20T04:16:25.729Z,0.00
2019-03-20T04:17:26.039Z,0.00
2019-03-20T04:18:25.808Z,0.00
2019-03-20T04:19:25.816Z,0.00
2019-03-20T04:20:25.717Z,0.00
2019-03-20T04:21:25.713Z,0.00
2019-03-20T04:22:25.756Z,0.00
2019-03-20T04:23:25.690Z,0.00
2019-03-20T04:24:25.648Z,0.00
2019-03-20T04:25:25.648Z,0.00
2019-03-20T04:26:25.672Z,0.00
2019-03-20T04:27:25.665Z,0.00
2019-03-20T04:28:25.629Z,0.00
2019-03-20T04:29:26.390Z,0.00
2019-03-20T04:30:26.432Z,0.00
2019-03-20T04:31:25.560Z,0.00
2019-03-20T04:32:25.589Z,0.00
2019-03-20T04:33:25.622Z,0.00
2019-03-20T04:34:25.568Z,0.00
2019-03-20T04:35:26.383Z,0.00
2019-03-20T04:36:25.579Z,0.00
2019-03-20T04:37:25.574Z,0.00
2019-03-20T04:38:25.610Z,0.00
2019-03-20T04:39:25.536Z,0.00
2019-03-20T04:40:25.494Z,0.00
2019-03-20T04:41:25.518Z,0.00
2019-03-20T04:42:25.505Z,0.00
2019-03-20T04:43:25.479Z,0.00
2019-03-20T04:44:25.516Z,0.00
2019-03-20T04:45:25.447Z,0.00
2019-03-20T04:46:25.512Z,0.00
2019-03-20T04:47:25.434Z,0.00
2019-03-20T04:48:25.415Z,0.00
2019-03-20T04:49:25.509Z,0.00
2019-03-20T04:50:25.424Z,0.00
2019-03-20T04:51:25.362Z,4.00
2019-03-20T04:52:25.874Z,0.00
2019-03-20T04:53:25.328Z,0.00
2019-03-20T04:54:25.878Z,4.00
2019-03-20T04:55:25.327Z,4.00
2019-03-20T04:56:25.332Z,4.00
2019-03-20T04:57:25.323Z,4.00
2019-03-20T04:58:25.900Z,4.00
2019-03-20T04:59:25.870Z,4.00
2019-03-20T05:00:25.339Z,4.00
2019-03-20T05:01:25.258Z,8.00
2019-03-20T05:02:25.272Z,8.00
2019-03-20T05:03:25.258Z,8.00
2019-03-20T05:04:25.226Z,12.00
2019-03-20T05:05:25.243Z,12.00
2019-03-20T05:06:25.264Z,12.00
2019-03-20T05:07:25.233Z,12.00
2019-03-20T05:08:25.172Z,12.00
2019-03-20T05:09:25.194Z,16.00
2019-03-20T05:10:25.156Z,20.00
2019-03-20T05:11:25.173Z,20.00
2019-03-20T05:12:25.160Z,24.00
2019-03-20T05:13:25.860Z,24.00
2019-03-20T05:14:25.148Z,28.00
2019-03-20T05:15:25.179Z,32.00
2019-03-20T05:16:25.107Z,32.00
2019-03-20T05:17:25.113Z,36.00
2019-03-20T05:18:25.069Z,36.00
2019-03-20T05:19:25.048Z,40.00
2019-03-20T05:20:25.100Z,44.00
2019-03-20T05:21:25.022Z,48.00
2019-03-20T05:22:25.077Z,52.00
2019-03-20T05:23:25.023Z,52.00
2019-03-20T05:24:24.998Z,56.00
2019-03-20T05:25:25.010Z,60.00
2019-03-20T05:26:24.973Z,64.00
2019-03-20T05:27:24.956Z,68.00
2019-03-20T05:28:24.986Z,68.00
2019-03-20T05:29:24.946Z,76.00
2019-03-20T05:30:25.050Z,80.00
2019-03-20T05:31:24.959Z,80.00
2019-03-20T05:32:24.998Z,88.00
2019-03-20T05:33:24.903Z,92.00
2019-03-20T05:34:24.966Z,92.00
2019-03-20T05:35:24.902Z,96.00
2019-03-20T05:36:24.937Z,104.00
2019-03-20T05:37:24.871Z,108.00
2019-03-20T05:38:24.844Z,112.00
2019-03-20T05:39:24.831Z,116.00
2019-03-20T05:40:24.820Z,120.00
2019-03-20T05:41:24.857Z,120.00
2019-03-20T05:42:24.819Z,124.00
2019-03-20T05:43:24.832Z,132.00
2019-03-20T05:44:24.814Z,136.00
2019-03-20T05:45:24.765Z,136.00
2019-03-20T05:46:24.890Z,144.00
2019-03-20T05:47:24.752Z,148.00
2019-03-20T05:48:24.760Z,148.00
2019-03-20T05:49:24.722Z,152.00
2019-03-20T05:50:24.787Z,160.00
2019-03-20T05:51:28.035Z,160.00
2019-03-20T05:52:25.336Z,168.00
2019-03-20T05:53:24.677Z,168.00
2019-03-20T05:54:24.670Z,172.00
2019-03-20T05:55:24.694Z,180.00
2019-03-20T05:56:24.690Z,180.00
2019-03-20T05:57:25.333Z,184.00
2019-03-20T05:58:24.688Z,188.00
2019-03-20T05:59:24.646Z,192.00
2019-03-20T06:00:25.419Z,200.00
2019-03-20T06:01:24.631Z,204.00
2019-03-20T06:02:25.792Z,208.00
2019-03-20T06:03:24.595Z,212.00
2019-03-20T06:04:24.551Z,216.00
2019-03-20T06:05:24.552Z,224.00
2019-03-20T06:06:24.534Z,228.00
2019-03-20T06:07:24.565Z,236.00
2019-03-20T06:08:24.576Z,240.00
2019-03-20T06:09:24.530Z,248.00
2019-03-20T06:10:24.504Z,256.00
2019-03-20T06:11:24.517Z,260.00
2019-03-20T06:12:24.470Z,268.00
2019-03-20T06:13:25.318Z,276.00
2019-03-20T06:14:24.468Z,280.00
2019-03-20T06:15:24.715Z,288.00
2019-03-20T06:16:24.427Z,296.00
2019-03-20T06:17:25.319Z,304.00
2019-03-20T06:18:24.414Z,308.00
2019-03-20T06:19:24.402Z,320.00
2019-03-20T06:20:24.473Z,336.00
2019-03-20T06:21:24.377Z,344.00
2019-03-20T06:22:24.451Z,356.00
2019-03-20T06:23:24.416Z,360.00
2019-03-20T06:24:24.384Z,368.00
2019-03-20T06:25:24.331Z,376.00
2019-03-20T06:26:24.319Z,388.00
2019-03-20T06:27:25.313Z,392.00
2019-03-20T06:28:24.349Z,408.00
2019-03-20T06:29:24.287Z,416.00
2019-03-20T06:30:24.310Z,420.00
2019-03-20T06:31:24.313Z,432.00
2019-03-20T06:32:24.313Z,440.00
2019-03-20T06:33:24.263Z,448.00
2019-03-20T06:34:24.282Z,456.00
2019-03-20T06:35:24.221Z,468.00
2019-03-20T06:36:24.283Z,476.00
2019-03-20T06:37:32.114Z,484.00
2019-03-20T06:38:25.226Z,492.00
2019-03-20T06:39:24.185Z,500.00
2019-03-20T06:40:26.874Z,508.00
2019-03-20T06:41:24.214Z,520.00
2019-03-20T06:42:24.190Z,532.00
2019-03-20T06:43:24.148Z,540.00
2019-03-20T06:44:24.852Z,552.00
2019-03-20T06:45:24.183Z,556.00
2019-03-20T06:46:24.805Z,568.00
2019-03-20T06:47:24.098Z,576.00
2019-03-20T06:48:24.077Z,584.00
2019-03-20T06:49:24.071Z,588.00
2019-03-20T06:50:24.063Z,596.00
2019-03-20T06:51:25.330Z,600.00
2019-03-20T06:52:24.840Z,608.00
2019-03-20T06:53:24.033Z,620.00
2019-03-20T06:54:24.023Z,624.00
2019-03-20T06:55:24.031Z,632.00
2019-03-20T06:56:24.001Z,640.00
2019-03-20T06:57:24.009Z,648.00
2019-03-20T06:58:23.981Z,656.00
2019-03-20T06:59:23.966Z,664.00
2019-03-20T07:00:24.017Z,672.00
2019-03-20T07:01:23.942Z,680.00
2019-03-20T07:02:24.033Z,684.00
2019-03-20T07:03:23.926Z,688.00
2019-03-20T07:04:23.908Z,696.00
2019-03-20T07:05:23.898Z,704.00
2019-03-20T07:06:23.890Z,708.00
2019-03-20T07:07:23.911Z,720.00
2019-03-20T07:08:23.883Z,732.00
2019-03-20T07:09:23.895Z,740.00
2019-03-20T07:10:23.849Z,744.00
2019-03-20T07:11:24.787Z,752.00
2019-03-20T07:12:23.865Z,756.00
2019-03-20T07:13:23.818Z,760.00
2019-03-20T07:14:23.852Z,764.00
2019-03-20T07:15:23.788Z,768.00
2019-03-20T07:16:24.285Z,772.00
2019-03-20T07:17:23.833Z,780.00
2019-03-20T07:18:23.790Z,784.00
2019-03-20T07:19:24.351Z,792.00
2019-03-20T07:20:23.741Z,800.00
2019-03-20T07:21:23.727Z,808.00
2019-03-20T07:22:23.725Z,820.00
2019-03-20T07:23:23.789Z,832.00
2019-03-20T07:24:23.723Z,848.00
2019-03-20T07:25:23.688Z,876.00
2019-03-20T07:26:23.698Z,904.00
2019-03-20T07:27:23.748Z,912.00
2019-03-20T07:28:23.682Z,932.00
2019-03-20T07:29:23.649Z,940.00
2019-03-20T07:30:24.278Z,944.00
2019-03-20T07:31:23.676Z,948.00
2019-03-20T07:32:23.621Z,948.00
2019-03-20T07:33:23.621Z,936.00
2019-03-20T07:34:23.581Z,944.00
2019-03-20T07:35:23.602Z,944.00
2019-03-20T07:36:23.554Z,928.00
2019-03-20T07:37:24.794Z,916.00
2019-03-20T07:38:23.549Z,912.00
2019-03-20T07:39:23.556Z,908.00
2019-03-20T07:40:23.519Z,908.00
2019-03-20T07:41:23.593Z,904.00
2019-03-20T07:42:23.520Z,900.00
2019-03-20T07:43:26.853Z,896.00
2019-03-20T07:44:24.306Z,896.00
2019-03-20T07:45:23.462Z,896.00
2019-03-20T07:46:24.286Z,896.00
2019-03-20T07:47:23.473Z,892.00
2019-03-20T07:48:23.435Z,888.00
2019-03-20T07:49:23.435Z,896.00
2019-03-20T07:50:23.401Z,888.00
2019-03-20T07:51:23.399Z,888.00
2019-03-20T07:52:24.003Z,888.00
2019-03-20T07:53:23.402Z,892.00
2019-03-20T07:54:23.361Z,888.00
2019-03-20T07:55:23.383Z,884.00
2019-03-20T07:56:23.351Z,884.00
2019-03-20T07:57:23.401Z,888.00
2019-03-20T07:58:23.318Z,884.00
2019-03-20T07:59:23.370Z,884.00
2019-03-20T08:00:23.359Z,884.00
2019-03-20T08:01:23.298Z,888.00
2019-03-20T08:02:23.331Z,888.00
2019-03-20T08:03:23.302Z,888.00
2019-03-20T08:04:23.755Z,892.00
2019-03-20T08:05:29.138Z,888.00
2019-03-20T08:06:24.251Z,888.00
2019-03-20T08:07:23.222Z,888.00
2019-03-20T08:08:23.754Z,896.00
2019-03-20T08:09:25.498Z,896.00
2019-03-20T08:10:23.758Z,896.00
2019-03-20T08:11:23.184Z,896.00
2019-03-20T08:12:23.214Z,896.00
2019-03-20T08:13:23.152Z,896.00
2019-03-20T08:14:23.163Z,896.00
2019-03-20T08:15:23.747Z,900.00
2019-03-20T08:16:23.128Z,908.00
2019-03-20T08:17:25.822Z,912.00
2019-03-20T08:18:23.102Z,916.00
2019-03-20T08:19:23.742Z,916.00
2019-03-20T08:20:23.114Z,920.00
2019-03-20T08:21:23.070Z,920.00
2019-03-20T08:22:23.081Z,924.00
2019-03-20T08:23:23.094Z,928.00
2019-03-20T08:24:23.073Z,928.00
2019-03-20T08:25:23.053Z,932.00
2019-03-20T08:26:23.015Z,932.00
2019-03-20T08:27:23.000Z,932.00
2019-03-20T08:28:22.999Z,932.00
2019-03-20T08:29:22.978Z,932.00
2019-03-20T08:30:22.991Z,936.00
2019-03-20T08:31:22.959Z,932.00
2019-03-20T08:32:22.981Z,936.00
2019-03-20T08:33:22.964Z,936.00
2019-03-20T08:34:22.931Z,936.00
2019-03-20T08:35:22.934Z,932.00
2019-03-20T08:36:22.931Z,928.00
2019-03-20T08:37:22.932Z,924.00
2019-03-20T08:38:22.882Z,924.00
2019-03-20T08:39:22.901Z,924.00
2019-03-20T08:40:22.892Z,928.00
2019-03-20T08:41:22.890Z,924.00
2019-03-20T08:42:23.738Z,904.00
2019-03-20T08:43:22.830Z,920.00
2019-03-20T08:44:22.859Z,908.00
2019-03-20T08:45:23.728Z,912.00
2019-03-20T08:46:22.805Z,912.00
2019-03-20T08:47:22.812Z,920.00
2019-03-20T08:48:22.780Z,920.00
2019-03-20T08:49:22.795Z,920.00
2019-03-20T08:50:22.774Z,924.00
2019-03-20T08:51:22.805Z,920.00
2019-03-20T08:52:22.732Z,920.00
2019-03-20T08:53:22.744Z,924.00
2019-03-20T08:54:22.786Z,924.00
2019-03-20T08:55:22.741Z,920.00
2019-03-20T08:56:22.692Z,920.00
2019-03-20T08:57:22.719Z,924.00
2019-03-20T08:58:22.793Z,920.00
2019-03-20T08:59:22.653Z,920.00
2019-03-20T09:00:22.685Z,920.00
2019-03-20T09:01:28.493Z,920.00
2019-03-20T09:02:23.618Z,924.00
2019-03-20T09:03:22.630Z,916.00
2019-03-20T09:04:22.598Z,916.00
2019-03-20T09:05:22.667Z,912.00
2019-03-20T09:06:22.581Z,908.00
2019-03-20T09:07:24.216Z,908.00
2019-03-20T09:08:29.264Z,904.00
2019-03-20T09:09:23.542Z,904.00
2019-03-20T09:10:22.574Z,904.00
2019-03-20T09:11:22.559Z,904.00
2019-03-20T09:12:23.264Z,904.00
2019-03-20T09:13:22.577Z,904.00
2019-03-20T09:14:22.498Z,904.00
2019-03-20T09:15:22.514Z,908.00
2019-03-20T09:16:22.473Z,908.00
2019-03-20T09:17:22.521Z,908.00
2019-03-20T09:18:22.498Z,904.00
2019-03-20T09:19:23.212Z,908.00
2019-03-20T09:20:23.219Z,912.00
2019-03-20T09:21:22.444Z,912.00
2019-03-20T09:22:22.465Z,920.00
2019-03-20T09:23:22.417Z,916.00
2019-03-20T09:24:23.209Z,916.00
2019-03-20T09:25:22.371Z,916.00
2019-03-20T09:26:22.362Z,920.00
2019-03-20T09:27:22.387Z,916.00
2019-03-20T09:28:23.206Z,924.00
2019-03-20T09:29:22.327Z,920.00
2019-03-20T09:30:22.355Z,924.00
2019-03-20T09:31:22.305Z,928.00
2019-03-20T09:32:23.247Z,928.00
2019-03-20T09:33:22.345Z,928.00
2019-03-20T09:34:22.275Z,924.00
2019-03-20T09:35:22.301Z,932.00
2019-03-20T09:36:22.248Z,928.00
2019-03-20T09:37:22.280Z,936.00
2019-03-20T09:38:23.203Z,928.00
2019-03-20T09:39:23.199Z,932.00
2019-03-20T09:40:23.868Z,932.00
2019-03-20T09:41:22.195Z,932.00
2019-03-20T09:42:22.189Z,936.00
2019-03-20T09:43:22.748Z,932.00
2019-03-20T09:44:22.157Z,924.00
2019-03-20T09:45:22.183Z,932.00
2019-03-20T09:46:22.135Z,936.00
2019-03-20T09:47:22.128Z,944.00
2019-03-20T09:48:22.212Z,944.00
2019-03-20T09:49:22.108Z,944.00
2019-03-20T09:50:22.138Z,944.00
2019-03-20T09:51:22.106Z,948.00
2019-03-20T09:52:22.098Z,948.00
2019-03-20T09:53:22.095Z,944.00
2019-03-20T09:54:22.063Z,968.00
2019-03-20T09:55:22.688Z,968.00
2019-03-20T09:56:22.687Z,976.00
2019-03-20T09:57:22.037Z,976.00
2019-03-20T09:58:22.047Z,972.00
2019-03-20T09:59:22.017Z,980.00
2019-03-20T10:00:21.990Z,984.00
2019-03-20T10:01:22.012Z,992.00
2019-03-20T10:02:22.092Z,996.00
2019-03-20T10:03:22.027Z,1000.00
2019-03-20T10:04:21.956Z,1008.00
2019-03-20T10:05:24.727Z,1012.00
2019-03-20T10:06:21.916Z,1016.00
2019-03-20T10:07:21.971Z,1028.00
2019-03-20T10:08:21.915Z,1028.00
2019-03-20T10:09:21.942Z,1032.00
2019-03-20T10:10:21.872Z,1036.00
2019-03-20T10:11:22.685Z,1036.00
2019-03-20T10:12:21.864Z,1036.00
2019-03-20T10:13:21.842Z,1044.00
2019-03-20T10:14:21.868Z,1040.00
2019-03-20T10:15:21.876Z,1040.00
2019-03-20T10:16:21.876Z,1044.00
2019-03-20T10:17:21.866Z,1044.00
2019-03-20T10:18:21.782Z,1048.00
2019-03-20T10:19:21.875Z,1048.00
2019-03-20T10:20:21.761Z,1052.00
2019-03-20T10:21:21.785Z,1052.00
2019-03-20T10:22:21.740Z,1056.00
2019-03-20T10:23:21.735Z,1064.00
2019-03-20T10:24:21.864Z,1056.00
2019-03-20T10:25:21.715Z,1060.00
2019-03-20T10:26:22.675Z,1060.00
2019-03-20T10:27:21.682Z,1052.00
2019-03-20T10:28:21.750Z,1060.00
2019-03-20T10:29:22.670Z,1060.00
2019-03-20T10:30:21.716Z,1068.00
2019-03-20T10:31:21.691Z,1068.00
2019-03-20T10:32:21.635Z,1064.00
2019-03-20T10:33:21.645Z,1060.00
2019-03-20T10:34:21.673Z,1056.00
2019-03-20T10:35:21.609Z,1056.00
2019-03-20T10:36:21.645Z,1060.00
2019-03-20T10:37:21.608Z,1060.00
2019-03-20T10:38:21.567Z,1068.00
2019-03-20T10:39:22.168Z,1072.00
2019-03-20T10:40:21.562Z,1068.00
2019-03-20T10:41:22.668Z,1056.00
2019-03-20T10:42:21.536Z,1052.00
2019-03-20T10:43:21.514Z,1060.00
2019-03-20T10:44:21.591Z,1068.00
2019-03-20T10:45:21.498Z,1076.00
2019-03-20T10:46:21.501Z,1068.00
2019-03-20T10:47:21.471Z,1072.00
2019-03-20T10:48:21.482Z,1072.00
2019-03-20T10:49:21.524Z,1072.00
2019-03-20T10:50:21.719Z,1076.00
2019-03-20T10:51:21.464Z,1068.00
2019-03-20T10:52:21.411Z,1060.00
2019-03-20T10:53:21.450Z,1048.00
2019-03-20T10:54:21.389Z,1036.00
2019-03-20T10:55:21.377Z,1036.00
2019-03-20T10:56:21.380Z,1036.00
2019-03-20T10:57:21.352Z,1028.00
2019-03-20T10:58:21.367Z,1020.00
2019-03-20T10:59:21.369Z,1024.00
2019-03-20T11:00:21.334Z,1028.00
2019-03-20T11:01:21.316Z,1032.00
2019-03-20T11:02:21.311Z,1024.00
2019-03-20T11:03:21.291Z,1016.00
2019-03-20T11:04:21.337Z,1012.00
2019-03-20T11:05:21.276Z,1012.00
2019-03-20T11:06:21.262Z,1012.00
2019-03-20T11:07:21.249Z,1016.00
2019-03-20T11:08:22.231Z,1024.00
2019-03-20T11:09:21.254Z,1020.00
2019-03-20T11:10:22.221Z,1012.00
2019-03-20T11:11:27.112Z,1012.00
2019-03-20T11:12:22.203Z,1012.00
2019-03-20T11:13:21.186Z,1004.00
2019-03-20T11:14:22.164Z,1016.00
2019-03-20T11:15:21.169Z,1008.00
2019-03-20T11:16:21.202Z,1004.00
2019-03-20T11:17:21.151Z,1000.00
2019-03-20T11:18:21.157Z,980.00
2019-03-20T11:19:21.145Z,988.00
2019-03-20T11:20:21.687Z,988.00
2019-03-20T11:21:21.123Z,984.00
2019-03-20T11:22:21.125Z,988.00
2019-03-20T11:23:21.109Z,992.00
2019-03-20T11:24:21.640Z,988.00
2019-03-20T11:25:21.079Z,980.00
2019-03-20T11:26:21.051Z,980.00
2019-03-20T11:27:21.035Z,996.00
2019-03-20T11:28:21.022Z,996.00
2019-03-20T11:29:21.810Z,996.00
2019-03-20T11:30:21.034Z,988.00
2019-03-20T11:31:21.048Z,980.00
2019-03-20T11:32:20.987Z,980.00
2019-03-20T11:33:21.001Z,980.00
2019-03-20T11:34:21.000Z,980.00
2019-03-20T11:35:20.942Z,972.00
2019-03-20T11:36:20.931Z,972.00
2019-03-20T11:37:20.938Z,964.00
2019-03-20T11:38:20.928Z,968.00
2019-03-20T11:39:29.221Z,968.00
2019-03-20T11:40:21.906Z,964.00
2019-03-20T11:41:20.893Z,964.00
2019-03-20T11:42:20.863Z,964.00
2019-03-20T11:43:20.906Z,956.00
2019-03-20T11:44:20.912Z,944.00
2019-03-20T11:45:23.374Z,944.00
2019-03-20T11:46:20.830Z,960.00
2019-03-20T11:47:20.843Z,960.00
2019-03-20T11:48:21.658Z,960.00
2019-03-20T11:49:20.817Z,956.00
2019-03-20T11:50:20.795Z,952.00
2019-03-20T11:51:20.783Z,944.00
2019-03-20T11:52:20.816Z,940.00
2019-03-20T11:53:20.744Z,936.00
2019-03-20T11:54:20.772Z,936.00
2019-03-20T11:55:20.752Z,932.00
2019-03-20T11:56:20.723Z,916.00
2019-03-20T11:57:21.756Z,908.00
2019-03-20T11:58:20.723Z,900.00
2019-03-20T11:59:21.218Z,888.00
2019-03-20T12:00:20.675Z,880.00
2019-03-20T12:01:20.694Z,872.00
2019-03-20T12:02:27.980Z,864.00
2019-03-20T12:03:21.699Z,856.00
2019-03-20T12:04:20.656Z,852.00
2019-03-20T12:05:20.643Z,848.00
2019-03-20T12:06:20.611Z,844.00
2019-03-20T12:07:20.591Z,828.00
2019-03-20T12:08:20.668Z,828.00
2019-03-20T12:09:21.123Z,824.00
2019-03-20T12:10:20.626Z,816.00
2019-03-20T12:11:20.972Z,812.00
2019-03-20T12:12:20.545Z,804.00
2019-03-20T12:13:20.533Z,804.00
2019-03-20T12:14:20.521Z,796.00
2019-03-20T12:15:20.538Z,788.00
2019-03-20T12:16:20.510Z,768.00
2019-03-20T12:17:21.147Z,756.00
2019-03-20T12:18:20.485Z,748.00
2019-03-20T12:19:20.469Z,744.00
2019-03-20T12:20:20.520Z,744.00
2019-03-20T12:21:20.471Z,740.00
2019-03-20T12:22:21.139Z,736.00
2019-03-20T12:23:20.454Z,724.00
2019-03-20T12:24:20.407Z,716.00
2019-03-20T12:25:20.424Z,708.00
2019-03-20T12:26:20.384Z,700.00
2019-03-20T12:27:20.386Z,700.00
2019-03-20T12:28:20.404Z,692.00
2019-03-20T12:29:21.154Z,692.00
2019-03-20T12:30:20.360Z,688.00
2019-03-20T12:31:20.330Z,684.00
2019-03-20T12:32:20.326Z,680.00
2019-03-20T12:33:20.330Z,672.00
2019-03-20T12:34:20.312Z,664.00
2019-03-20T12:35:21.100Z,672.00
2019-03-20T12:36:20.298Z,672.00
2019-03-20T12:37:20.268Z,672.00
2019-03-20T12:38:20.285Z,664.00
2019-03-20T12:39:20.267Z,668.00
2019-03-20T12:40:20.294Z,668.00
2019-03-20T12:41:21.097Z,668.00
2019-03-20T12:42:20.239Z,668.00
2019-03-20T12:43:20.234Z,672.00
2019-03-20T12:44:20.189Z,664.00
2019-03-20T12:45:20.239Z,668.00
2019-03-20T12:46:20.188Z,664.00